sensor_id;sensor_type;location;lat;lon;timestamp;P1;durP1;ratioP1;P2;durP2;ratioP2
59786;SDS011;45672;51.612;5.536;2023-11-19T00:01:00;17.92;;;13.32;;
59786;SDS011;45672;51.612;5.536;2023-11-19T00:03:26;19.73;;;13.95;;
59786;SDS011;45672;51.612;5.536;2023-11-19T00:05:51;25.45;;;14.98;;
59786;SDS011;45672;51.612;5.536;2023-11-19T00:08:16;18.13;;;13.48;;
59786;SDS011;45672;51.612;5.536;2023-11-19T00:10:42;21.65;;;13.85;;
59786;SDS011;45672;51.612;5.536;2023-11-19T00:13:07;21.67;;;14.27;;
59786;SDS011;45672;51.612;5.536;2023-11-19T00:15:35;19.52;;;13.32;;
59786;SDS011;45672;51.612;5.536;2023-11-19T00:18:00;17.70;;;13.60;;
59786;SDS011;45672;51.612;5.536;2023-11-19T00:20:29;24.35;;;14.65;;
59786;SDS011;45672;51.612;5.536;2023-11-19T00:22:54;20.90;;;13.82;;
59786;SDS011;45672;51.612;5.536;2023-11-19T00:25:20;20.15;;;13.88;;
59786;SDS011;45672;51.612;5.536;2023-11-19T00:27:50;22.90;;;14.35;;
59786;SDS011;45672;51.612;5.536;2023-11-19T00:30:16;20.27;;;13.75;;
59786;SDS011;45672;51.612;5.536;2023-11-19T00:32:41;19.70;;;13.10;;
59786;SDS011;45672;51.612;5.536;2023-11-19T00:35:07;21.83;;;14.45;;
59786;SDS011;45672;51.612;5.536;2023-11-19T00:37:35;26.85;;;13.95;;
59786;SDS011;45672;51.612;5.536;2023-11-19T00:40:00;20.08;;;13.23;;
59786;SDS011;45672;51.612;5.536;2023-11-19T00:42:25;26.23;;;13.95;;
59786;SDS011;45672;51.612;5.536;2023-11-19T00:44:51;19.75;;;12.45;;
59786;SDS011;45672;51.612;5.536;2023-11-19T00:47:17;17.45;;;11.43;;
59786;SDS011;45672;51.612;5.536;2023-11-19T00:49:45;17.85;;;10.80;;
59786;SDS011;45672;51.612;5.536;2023-11-19T00:52:11;23.83;;;11.02;;
59786;SDS011;45672;51.612;5.536;2023-11-19T00:54:36;18.42;;;10.32;;
59786;SDS011;45672;51.612;5.536;2023-11-19T00:57:02;19.17;;;9.45;;
59786;SDS011;45672;51.612;5.536;2023-11-19T00:59:27;21.55;;;9.18;;
59786;SDS011;45672;51.612;5.536;2023-11-19T01:01:53;17.85;;;9.15;;
59786;SDS011;45672;51.612;5.536;2023-11-19T01:04:19;19.30;;;8.45;;
59786;SDS011;45672;51.612;5.536;2023-11-19T01:06:44;19.73;;;8.38;;
59786;SDS011;45672;51.612;5.536;2023-11-19T01:09:09;18.02;;;7.43;;
59786;SDS011;45672;51.612;5.536;2023-11-19T01:11:35;17.77;;;7.57;;
59786;SDS011;45672;51.612;5.536;2023-11-19T01:14:00;13.82;;;6.68;;
59786;SDS011;45672;51.612;5.536;2023-11-19T01:16:26;18.83;;;6.95;;
59786;SDS011;45672;51.612;5.536;2023-11-19T01:18:52;15.63;;;6.97;;
59786;SDS011;45672;51.612;5.536;2023-11-19T01:21:17;17.77;;;7.13;;
59786;SDS011;45672;51.612;5.536;2023-11-19T01:23:43;20.42;;;7.03;;
59786;SDS011;45672;51.612;5.536;2023-11-19T01:26:09;18.00;;;6.38;;
59786;SDS011;45672;51.612;5.536;2023-11-19T01:28:38;20.23;;;6.05;;
59786;SDS011;45672;51.612;5.536;2023-11-19T01:31:05;13.98;;;5.88;;
59786;SDS011;45672;51.612;5.536;2023-11-19T01:33:30;15.95;;;5.82;;
59786;SDS011;45672;51.612;5.536;2023-11-19T01:35:56;17.60;;;5.50;;
59786;SDS011;45672;51.612;5.536;2023-11-19T01:38:23;18.20;;;5.75;;
59786;SDS011;45672;51.612;5.536;2023-11-19T01:40:49;22.95;;;5.72;;
59786;SDS011;45672;51.612;5.536;2023-11-19T01:43:30;15.73;;;4.90;;
59786;SDS011;45672;51.612;5.536;2023-11-19T01:46:00;17.77;;;5.10;;
59786;SDS011;45672;51.612;5.536;2023-11-19T01:48:26;15.77;;;5.32;;
59786;SDS011;45672;51.612;5.536;2023-11-19T01:50:51;19.05;;;5.80;;
59786;SDS011;45672;51.612;5.536;2023-11-19T01:53:18;17.98;;;5.00;;
59786;SDS011;45672;51.612;5.536;2023-11-19T01:55:44;13.15;;;4.97;;
59786;SDS011;45672;51.612;5.536;2023-11-19T01:58:11;15.23;;;5.05;;
59786;SDS011;45672;51.612;5.536;2023-11-19T02:00:37;24.25;;;6.20;;
59786;SDS011;45672;51.612;5.536;2023-11-19T02:03:04;19.80;;;5.05;;
59786;SDS011;45672;51.612;5.536;2023-11-19T02:05:33;18.77;;;5.00;;
59786;SDS011;45672;51.612;5.536;2023-11-19T02:07:58;17.42;;;4.45;;
59786;SDS011;45672;51.612;5.536;2023-11-19T02:10:24;22.00;;;4.63;;
59786;SDS011;45672;51.612;5.536;2023-11-19T02:12:50;24.50;;;5.32;;
59786;SDS011;45672;51.612;5.536;2023-11-19T02:15:16;22.40;;;4.97;;
59786;SDS011;45672;51.612;5.536;2023-11-19T02:17:44;20.48;;;5.30;;
59786;SDS011;45672;51.612;5.536;2023-11-19T02:20:09;14.70;;;5.00;;
59786;SDS011;45672;51.612;5.536;2023-11-19T02:22:37;22.15;;;5.75;;
59786;SDS011;45672;51.612;5.536;2023-11-19T02:25:12;22.85;;;6.07;;
59786;SDS011;45672;51.612;5.536;2023-11-19T02:27:53;20.95;;;4.93;;
59786;SDS011;45672;51.612;5.536;2023-11-19T02:30:21;29.38;;;5.85;;
59786;SDS011;45672;51.612;5.536;2023-11-19T02:32:51;26.75;;;5.45;;
59786;SDS011;45672;51.612;5.536;2023-11-19T02:35:17;24.70;;;5.70;;
59786;SDS011;45672;51.612;5.536;2023-11-19T02:37:42;23.25;;;5.57;;
59786;SDS011;45672;51.612;5.536;2023-11-19T02:40:07;27.23;;;5.68;;
59786;SDS011;45672;51.612;5.536;2023-11-19T02:42:34;24.48;;;5.55;;
59786;SDS011;45672;51.612;5.536;2023-11-19T02:44:59;23.85;;;5.82;;
59786;SDS011;45672;51.612;5.536;2023-11-19T02:47:24;21.38;;;5.47;;
59786;SDS011;45672;51.612;5.536;2023-11-19T02:49:50;27.67;;;5.32;;
59786;SDS011;45672;51.612;5.536;2023-11-19T02:52:15;27.30;;;5.13;;
59786;SDS011;45672;51.612;5.536;2023-11-19T02:54:41;24.65;;;5.30;;
59786;SDS011;45672;51.612;5.536;2023-11-19T02:57:07;31.30;;;5.82;;
59786;SDS011;45672;51.612;5.536;2023-11-19T02:59:37;23.80;;;4.97;;
59786;SDS011;45672;51.612;5.536;2023-11-19T03:02:07;22.27;;;5.35;;
59786;SDS011;45672;51.612;5.536;2023-11-19T03:04:36;30.58;;;6.28;;
59786;SDS011;45672;51.612;5.536;2023-11-19T03:07:01;25.58;;;5.55;;
59786;SDS011;45672;51.612;5.536;2023-11-19T03:09:27;25.13;;;5.55;;
59786;SDS011;45672;51.612;5.536;2023-11-19T03:11:54;33.17;;;5.35;;
59786;SDS011;45672;51.612;5.536;2023-11-19T03:14:19;31.80;;;5.63;;
59786;SDS011;45672;51.612;5.536;2023-11-19T03:16:45;32.35;;;5.05;;
59786;SDS011;45672;51.612;5.536;2023-11-19T03:19:11;31.60;;;5.28;;
59786;SDS011;45672;51.612;5.536;2023-11-19T03:21:37;21.92;;;5.07;;
59786;SDS011;45672;51.612;5.536;2023-11-19T03:24:02;35.20;;;5.45;;
59786;SDS011;45672;51.612;5.536;2023-11-19T03:26:28;29.15;;;5.65;;
59786;SDS011;45672;51.612;5.536;2023-11-19T03:28:54;28.40;;;5.15;;
59786;SDS011;45672;51.612;5.536;2023-11-19T03:31:19;32.30;;;5.15;;
59786;SDS011;45672;51.612;5.536;2023-11-19T03:33:45;33.38;;;5.38;;
59786;SDS011;45672;51.612;5.536;2023-11-19T03:36:11;40.72;;;5.97;;
59786;SDS011;45672;51.612;5.536;2023-11-19T03:38:37;31.17;;;5.18;;
59786;SDS011;45672;51.612;5.536;2023-11-19T03:41:12;41.30;;;6.10;;
59786;SDS011;45672;51.612;5.536;2023-11-19T03:43:39;27.95;;;5.13;;
59786;SDS011;45672;51.612;5.536;2023-11-19T03:46:05;31.38;;;5.35;;
59786;SDS011;45672;51.612;5.536;2023-11-19T03:48:41;28.98;;;4.57;;
59786;SDS011;45672;51.612;5.536;2023-11-19T03:51:06;34.53;;;5.28;;
59786;SDS011;45672;51.612;5.536;2023-11-19T03:53:31;33.05;;;4.97;;
59786;SDS011;45672;51.612;5.536;2023-11-19T03:55:57;32.08;;;5.30;;
59786;SDS011;45672;51.612;5.536;2023-11-19T03:58:22;27.35;;;4.65;;
59786;SDS011;45672;51.612;5.536;2023-11-19T04:00:47;30.02;;;4.60;;
59786;SDS011;45672;51.612;5.536;2023-11-19T04:03:12;32.95;;;5.00;;
59786;SDS011;45672;51.612;5.536;2023-11-19T04:05:38;27.75;;;5.18;;
59786;SDS011;45672;51.612;5.536;2023-11-19T04:08:03;33.17;;;5.65;;
59786;SDS011;45672;51.612;5.536;2023-11-19T04:10:28;34.30;;;5.80;;
59786;SDS011;45672;51.612;5.536;2023-11-19T04:12:54;26.55;;;5.07;;
59786;SDS011;45672;51.612;5.536;2023-11-19T04:15:19;28.83;;;5.97;;
59786;SDS011;45672;51.612;5.536;2023-11-19T04:17:44;34.40;;;5.28;;
59786;SDS011;45672;51.612;5.536;2023-11-19T04:20:10;31.33;;;4.68;;
59786;SDS011;45672;51.612;5.536;2023-11-19T04:22:38;32.20;;;5.03;;
59786;SDS011;45672;51.612;5.536;2023-11-19T04:25:04;35.42;;;5.63;;
59786;SDS011;45672;51.612;5.536;2023-11-19T04:27:29;34.13;;;5.38;;
59786;SDS011;45672;51.612;5.536;2023-11-19T04:29:55;32.63;;;5.72;;
59786;SDS011;45672;51.612;5.536;2023-11-19T04:32:20;32.13;;;5.65;;
59786;SDS011;45672;51.612;5.536;2023-11-19T04:34:46;40.70;;;5.15;;
59786;SDS011;45672;51.612;5.536;2023-11-19T04:37:11;31.10;;;5.30;;
59786;SDS011;45672;51.612;5.536;2023-11-19T04:39:36;41.67;;;6.40;;
59786;SDS011;45672;51.612;5.536;2023-11-19T04:42:02;33.88;;;5.70;;
59786;SDS011;45672;51.612;5.536;2023-11-19T04:44:29;30.23;;;6.43;;
59786;SDS011;45672;51.612;5.536;2023-11-19T04:46:54;36.67;;;6.05;;
59786;SDS011;45672;51.612;5.536;2023-11-19T04:49:20;36.92;;;5.35;;
59786;SDS011;45672;51.612;5.536;2023-11-19T04:51:45;41.08;;;6.13;;
59786;SDS011;45672;51.612;5.536;2023-11-19T04:54:13;31.80;;;5.20;;
59786;SDS011;45672;51.612;5.536;2023-11-19T04:56:39;47.10;;;5.88;;
59786;SDS011;45672;51.612;5.536;2023-11-19T04:59:05;31.25;;;5.20;;
59786;SDS011;45672;51.612;5.536;2023-11-19T05:01:33;42.78;;;7.00;;
59786;SDS011;45672;51.612;5.536;2023-11-19T05:03:59;45.97;;;6.45;;
59786;SDS011;45672;51.612;5.536;2023-11-19T05:06:31;32.88;;;6.15;;
59786;SDS011;45672;51.612;5.536;2023-11-19T05:08:58;38.25;;;5.88;;
59786;SDS011;45672;51.612;5.536;2023-11-19T05:11:26;38.13;;;5.40;;
59786;SDS011;45672;51.612;5.536;2023-11-19T05:13:53;39.03;;;6.07;;
59786;SDS011;45672;51.612;5.536;2023-11-19T05:16:19;37.35;;;5.80;;
59786;SDS011;45672;51.612;5.536;2023-11-19T05:18:45;43.35;;;5.57;;
59786;SDS011;45672;51.612;5.536;2023-11-19T05:21:11;35.88;;;6.03;;
59786;SDS011;45672;51.612;5.536;2023-11-19T05:23:37;39.50;;;5.78;;
59786;SDS011;45672;51.612;5.536;2023-11-19T05:26:02;37.53;;;5.15;;
59786;SDS011;45672;51.612;5.536;2023-11-19T05:28:27;36.33;;;5.75;;
59786;SDS011;45672;51.612;5.536;2023-11-19T05:30:53;32.97;;;5.47;;
59786;SDS011;45672;51.612;5.536;2023-11-19T05:33:19;31.63;;;6.13;;
59786;SDS011;45672;51.612;5.536;2023-11-19T05:35:44;30.50;;;5.28;;
59786;SDS011;45672;51.612;5.536;2023-11-19T05:38:10;39.55;;;5.70;;
59786;SDS011;45672;51.612;5.536;2023-11-19T05:40:35;36.67;;;5.70;;
59786;SDS011;45672;51.612;5.536;2023-11-19T05:43:01;35.45;;;6.15;;
59786;SDS011;45672;51.612;5.536;2023-11-19T05:45:26;35.45;;;5.20;;
59786;SDS011;45672;51.612;5.536;2023-11-19T05:47:51;31.38;;;5.18;;
59786;SDS011;45672;51.612;5.536;2023-11-19T05:50:17;37.55;;;5.25;;
59786;SDS011;45672;51.612;5.536;2023-11-19T05:52:43;30.92;;;5.60;;
59786;SDS011;45672;51.612;5.536;2023-11-19T05:55:09;36.00;;;5.88;;
59786;SDS011;45672;51.612;5.536;2023-11-19T05:57:37;28.10;;;4.45;;
59786;SDS011;45672;51.612;5.536;2023-11-19T06:00:03;36.13;;;4.90;;
59786;SDS011;45672;51.612;5.536;2023-11-19T06:02:32;35.30;;;5.35;;
59786;SDS011;45672;51.612;5.536;2023-11-19T06:04:58;33.30;;;4.93;;
59786;SDS011;45672;51.612;5.536;2023-11-19T06:07:23;35.55;;;5.53;;
59786;SDS011;45672;51.612;5.536;2023-11-19T06:09:48;40.38;;;5.22;;
59786;SDS011;45672;51.612;5.536;2023-11-19T06:12:14;31.92;;;5.20;;
59786;SDS011;45672;51.612;5.536;2023-11-19T06:14:39;40.45;;;5.80;;
59786;SDS011;45672;51.612;5.536;2023-11-19T06:17:05;38.70;;;4.85;;
59786;SDS011;45672;51.612;5.536;2023-11-19T06:19:30;38.50;;;5.80;;
59786;SDS011;45672;51.612;5.536;2023-11-19T06:21:56;36.97;;;5.28;;
59786;SDS011;45672;51.612;5.536;2023-11-19T06:24:21;45.83;;;6.70;;
59786;SDS011;45672;51.612;5.536;2023-11-19T06:26:47;34.58;;;5.03;;
59786;SDS011;45672;51.612;5.536;2023-11-19T06:29:12;38.17;;;5.22;;
59786;SDS011;45672;51.612;5.536;2023-11-19T06:31:43;37.50;;;5.45;;
59786;SDS011;45672;51.612;5.536;2023-11-19T06:34:08;40.72;;;5.72;;
59786;SDS011;45672;51.612;5.536;2023-11-19T06:36:34;43.97;;;6.45;;
59786;SDS011;45672;51.612;5.536;2023-11-19T06:39:00;32.05;;;5.68;;
59786;SDS011;45672;51.612;5.536;2023-11-19T06:41:25;33.13;;;5.72;;
59786;SDS011;45672;51.612;5.536;2023-11-19T06:43:51;43.92;;;5.75;;
59786;SDS011;45672;51.612;5.536;2023-11-19T06:46:17;37.60;;;5.97;;
59786;SDS011;45672;51.612;5.536;2023-11-19T06:48:43;39.92;;;6.78;;
59786;SDS011;45672;51.612;5.536;2023-11-19T06:51:09;30.45;;;4.95;;
59786;SDS011;45672;51.612;5.536;2023-11-19T06:53:34;41.25;;;6.07;;
59786;SDS011;45672;51.612;5.536;2023-11-19T06:56:01;36.30;;;5.28;;
59786;SDS011;45672;51.612;5.536;2023-11-19T06:58:30;42.45;;;5.88;;
59786;SDS011;45672;51.612;5.536;2023-11-19T07:00:55;40.83;;;5.25;;
59786;SDS011;45672;51.612;5.536;2023-11-19T07:03:21;33.35;;;5.57;;
59786;SDS011;45672;51.612;5.536;2023-11-19T07:05:46;40.75;;;5.57;;
59786;SDS011;45672;51.612;5.536;2023-11-19T07:08:12;38.20;;;5.47;;
59786;SDS011;45672;51.612;5.536;2023-11-19T07:10:37;39.50;;;5.78;;
59786;SDS011;45672;51.612;5.536;2023-11-19T07:13:03;42.13;;;5.65;;
59786;SDS011;45672;51.612;5.536;2023-11-19T07:15:30;52.60;;;5.93;;
59786;SDS011;45672;51.612;5.536;2023-11-19T07:17:57;39.33;;;5.35;;
59786;SDS011;45672;51.612;5.536;2023-11-19T07:20:23;38.72;;;5.40;;
59786;SDS011;45672;51.612;5.536;2023-11-19T07:22:48;48.55;;;6.13;;
59786;SDS011;45672;51.612;5.536;2023-11-19T07:25:14;40.55;;;5.07;;
59786;SDS011;45672;51.612;5.536;2023-11-19T07:27:39;45.90;;;5.47;;
59786;SDS011;45672;51.612;5.536;2023-11-19T07:30:05;41.65;;;5.82;;
59786;SDS011;45672;51.612;5.536;2023-11-19T07:32:34;34.60;;;4.78;;
59786;SDS011;45672;51.612;5.536;2023-11-19T07:34:59;37.30;;;5.40;;
59786;SDS011;45672;51.612;5.536;2023-11-19T07:37:25;33.85;;;5.60;;
59786;SDS011;45672;51.612;5.536;2023-11-19T07:39:50;37.03;;;5.38;;
59786;SDS011;45672;51.612;5.536;2023-11-19T07:42:15;36.97;;;5.55;;
59786;SDS011;45672;51.612;5.536;2023-11-19T07:44:41;35.72;;;5.30;;
59786;SDS011;45672;51.612;5.536;2023-11-19T07:47:06;44.83;;;6.60;;
59786;SDS011;45672;51.612;5.536;2023-11-19T07:49:32;36.17;;;6.28;;
59786;SDS011;45672;51.612;5.536;2023-11-19T07:51:57;32.83;;;5.20;;
59786;SDS011;45672;51.612;5.536;2023-11-19T07:54:22;36.95;;;5.15;;
59786;SDS011;45672;51.612;5.536;2023-11-19T07:56:48;48.13;;;6.18;;
59786;SDS011;45672;51.612;5.536;2023-11-19T07:59:14;31.67;;;4.07;;
59786;SDS011;45672;51.612;5.536;2023-11-19T08:01:40;38.00;;;5.10;;
59786;SDS011;45672;51.612;5.536;2023-11-19T08:04:05;36.13;;;5.90;;
59786;SDS011;45672;51.612;5.536;2023-11-19T08:06:30;31.90;;;5.15;;
59786;SDS011;45672;51.612;5.536;2023-11-19T08:08:56;44.28;;;6.13;;
59786;SDS011;45672;51.612;5.536;2023-11-19T08:11:21;41.85;;;5.38;;
59786;SDS011;45672;51.612;5.536;2023-11-19T08:13:46;41.70;;;6.18;;
59786;SDS011;45672;51.612;5.536;2023-11-19T08:16:12;35.83;;;5.32;;
59786;SDS011;45672;51.612;5.536;2023-11-19T08:18:37;38.20;;;5.80;;
59786;SDS011;45672;51.612;5.536;2023-11-19T08:21:03;35.63;;;5.63;;
59786;SDS011;45672;51.612;5.536;2023-11-19T08:23:29;37.15;;;6.15;;
59786;SDS011;45672;51.612;5.536;2023-11-19T08:25:55;31.15;;;5.05;;
59786;SDS011;45672;51.612;5.536;2023-11-19T08:28:20;32.97;;;5.80;;
59786;SDS011;45672;51.612;5.536;2023-11-19T08:30:46;36.08;;;5.68;;
59786;SDS011;45672;51.612;5.536;2023-11-19T08:33:11;40.47;;;5.57;;
59786;SDS011;45672;51.612;5.536;2023-11-19T08:35:36;37.17;;;6.35;;
59786;SDS011;45672;51.612;5.536;2023-11-19T08:38:02;35.35;;;5.93;;
59786;SDS011;45672;51.612;5.536;2023-11-19T08:40:27;36.20;;;6.05;;
59786;SDS011;45672;51.612;5.536;2023-11-19T08:42:54;38.97;;;5.07;;
59786;SDS011;45672;51.612;5.536;2023-11-19T08:45:20;35.47;;;5.82;;
59786;SDS011;45672;51.612;5.536;2023-11-19T08:47:46;40.22;;;5.82;;
59786;SDS011;45672;51.612;5.536;2023-11-19T08:50:11;37.30;;;6.13;;
59786;SDS011;45672;51.612;5.536;2023-11-19T08:52:36;40.22;;;6.55;;
59786;SDS011;45672;51.612;5.536;2023-11-19T08:55:02;32.80;;;4.95;;
59786;SDS011;45672;51.612;5.536;2023-11-19T08:57:30;28.80;;;5.70;;
59786;SDS011;45672;51.612;5.536;2023-11-19T08:59:55;31.35;;;5.28;;
59786;SDS011;45672;51.612;5.536;2023-11-19T09:02:20;33.03;;;6.22;;
59786;SDS011;45672;51.612;5.536;2023-11-19T09:04:46;35.67;;;6.25;;
59786;SDS011;45672;51.612;5.536;2023-11-19T09:07:11;37.08;;;5.63;;
59786;SDS011;45672;51.612;5.536;2023-11-19T09:09:37;32.85;;;5.30;;
59786;SDS011;45672;51.612;5.536;2023-11-19T09:12:03;33.35;;;6.10;;
59786;SDS011;45672;51.612;5.536;2023-11-19T09:14:31;32.28;;;6.20;;
59786;SDS011;45672;51.612;5.536;2023-11-19T09:16:56;37.80;;;6.60;;
59786;SDS011;45672;51.612;5.536;2023-11-19T09:19:23;36.55;;;5.80;;
59786;SDS011;45672;51.612;5.536;2023-11-19T09:21:48;29.02;;;5.57;;
59786;SDS011;45672;51.612;5.536;2023-11-19T09:24:14;29.35;;;5.18;;
59786;SDS011;45672;51.612;5.536;2023-11-19T09:26:40;34.15;;;4.50;;
59786;SDS011;45672;51.612;5.536;2023-11-19T09:29:06;35.75;;;5.93;;
59786;SDS011;45672;51.612;5.536;2023-11-19T09:31:32;37.90;;;5.22;;
59786;SDS011;45672;51.612;5.536;2023-11-19T09:33:58;39.22;;;6.07;;
59786;SDS011;45672;51.612;5.536;2023-11-19T09:36:23;31.10;;;5.15;;
59786;SDS011;45672;51.612;5.536;2023-11-19T09:38:49;30.23;;;6.15;;
59786;SDS011;45672;51.612;5.536;2023-11-19T09:41:14;33.15;;;6.13;;
59786;SDS011;45672;51.612;5.536;2023-11-19T09:43:40;36.15;;;5.60;;
59786;SDS011;45672;51.612;5.536;2023-11-19T09:46:06;38.83;;;6.15;;
59786;SDS011;45672;51.612;5.536;2023-11-19T09:48:36;35.05;;;5.43;;
59786;SDS011;45672;51.612;5.536;2023-11-19T09:51:03;32.70;;;5.72;;
59786;SDS011;45672;51.612;5.536;2023-11-19T09:53:30;37.13;;;6.10;;
59786;SDS011;45672;51.612;5.536;2023-11-19T09:55:56;33.20;;;5.10;;
59786;SDS011;45672;51.612;5.536;2023-11-19T09:58:22;36.25;;;5.97;;
59786;SDS011;45672;51.612;5.536;2023-11-19T10:00:47;35.97;;;6.00;;
59786;SDS011;45672;51.612;5.536;2023-11-19T10:03:14;32.60;;;5.53;;
59786;SDS011;45672;51.612;5.536;2023-11-19T10:05:40;33.78;;;6.28;;
59786;SDS011;45672;51.612;5.536;2023-11-19T10:08:06;35.10;;;5.75;;
59786;SDS011;45672;51.612;5.536;2023-11-19T10:10:32;34.90;;;5.40;;
59786;SDS011;45672;51.612;5.536;2023-11-19T10:12:58;36.75;;;6.00;;
59786;SDS011;45672;51.612;5.536;2023-11-19T10:15:25;40.13;;;6.20;;
59786;SDS011;45672;51.612;5.536;2023-11-19T10:17:52;29.17;;;5.70;;
59786;SDS011;45672;51.612;5.536;2023-11-19T10:20:20;40.25;;;5.90;;
59786;SDS011;45672;51.612;5.536;2023-11-19T10:22:45;34.47;;;5.50;;
59786;SDS011;45672;51.612;5.536;2023-11-19T10:25:23;36.65;;;5.38;;
59786;SDS011;45672;51.612;5.536;2023-11-19T10:27:50;32.15;;;5.93;;
59786;SDS011;45672;51.612;5.536;2023-11-19T10:30:34;38.00;;;5.68;;
59786;SDS011;45672;51.612;5.536;2023-11-19T10:35:31;32.33;;;5.43;;
59786;SDS011;45672;51.612;5.536;2023-11-19T10:38:00;37.10;;;5.72;;
59786;SDS011;45672;51.612;5.536;2023-11-19T10:40:41;37.40;;;5.22;;
59786;SDS011;45672;51.612;5.536;2023-11-19T10:43:06;32.70;;;5.47;;
59786;SDS011;45672;51.612;5.536;2023-11-19T10:45:32;35.47;;;5.78;;
59786;SDS011;45672;51.612;5.536;2023-11-19T10:47:59;42.15;;;6.05;;
59786;SDS011;45672;51.612;5.536;2023-11-19T10:50:24;29.58;;;6.30;;
59786;SDS011;45672;51.612;5.536;2023-11-19T10:52:51;31.48;;;5.35;;
59786;SDS011;45672;51.612;5.536;2023-11-19T10:55:28;34.88;;;5.80;;
59786;SDS011;45672;51.612;5.536;2023-11-19T10:57:58;28.33;;;5.07;;
59786;SDS011;45672;51.612;5.536;2023-11-19T11:03:20;30.30;;;5.57;;
59786;SDS011;45672;51.612;5.536;2023-11-19T11:05:50;26.20;;;4.93;;
59786;SDS011;45672;51.612;5.536;2023-11-19T11:08:16;31.17;;;5.00;;
59786;SDS011;45672;51.612;5.536;2023-11-19T11:10:44;28.83;;;4.70;;
59786;SDS011;45672;51.612;5.536;2023-11-19T11:13:11;25.20;;;5.35;;
59786;SDS011;45672;51.612;5.536;2023-11-19T11:15:38;32.05;;;6.40;;
59786;SDS011;45672;51.612;5.536;2023-11-19T11:18:04;26.20;;;5.38;;
59786;SDS011;45672;51.612;5.536;2023-11-19T11:20:33;30.00;;;5.10;;
59786;SDS011;45672;51.612;5.536;2023-11-19T11:25:58;30.33;;;5.68;;
59786;SDS011;45672;51.612;5.536;2023-11-19T11:28:48;27.52;;;5.75;;
59786;SDS011;45672;51.612;5.536;2023-11-19T11:33:58;26.50;;;5.47;;
59786;SDS011;45672;51.612;5.536;2023-11-19T11:36:58;28.92;;;5.13;;
59786;SDS011;45672;51.612;5.536;2023-11-19T11:39:28;32.40;;;5.15;;
59786;SDS011;45672;51.612;5.536;2023-11-19T11:42:39;32.10;;;5.90;;
59786;SDS011;45672;51.612;5.536;2023-11-19T11:48:00;33.83;;;5.40;;
59786;SDS011;45672;51.612;5.536;2023-11-19T11:50:21;28.25;;;5.07;;
59786;SDS011;45672;51.612;5.536;2023-11-19T11:55:35;20.75;;;3.92;;
59786;SDS011;45672;51.612;5.536;2023-11-19T11:58:10;17.63;;;4.03;;
59786;SDS011;45672;51.612;5.536;2023-11-19T12:00:39;20.45;;;4.18;;
59786;SDS011;45672;51.612;5.536;2023-11-19T12:03:05;25.25;;;4.53;;
59786;SDS011;45672;51.612;5.536;2023-11-19T12:05:32;21.13;;;4.25;;
59786;SDS011;45672;51.612;5.536;2023-11-19T12:08:05;21.35;;;4.30;;
59786;SDS011;45672;51.612;5.536;2023-11-19T12:10:49;25.70;;;4.95;;
59786;SDS011;45672;51.612;5.536;2023-11-19T12:13:16;26.08;;;4.63;;
59786;SDS011;45672;51.612;5.536;2023-11-19T12:18:23;24.00;;;5.07;;
59786;SDS011;45672;51.612;5.536;2023-11-19T12:20:49;26.30;;;5.07;;
59786;SDS011;45672;51.612;5.536;2023-11-19T12:23:15;27.83;;;6.07;;
59786;SDS011;45672;51.612;5.536;2023-11-19T12:25:40;23.98;;;4.25;;
59786;SDS011;45672;51.612;5.536;2023-11-19T12:28:06;25.95;;;5.22;;
59786;SDS011;45672;51.612;5.536;2023-11-19T12:30:41;24.73;;;4.95;;
59786;SDS011;45672;51.612;5.536;2023-11-19T12:33:10;18.95;;;5.10;;
59786;SDS011;45672;51.612;5.536;2023-11-19T12:35:42;21.38;;;5.47;;
59786;SDS011;45672;51.612;5.536;2023-11-19T12:38:22;24.88;;;4.40;;
59786;SDS011;45672;51.612;5.536;2023-11-19T12:41:08;23.02;;;4.45;;
59786;SDS011;45672;51.612;5.536;2023-11-19T12:43:36;18.60;;;4.22;;
59786;SDS011;45672;51.612;5.536;2023-11-19T12:46:11;25.98;;;6.05;;
59786;SDS011;45672;51.612;5.536;2023-11-19T12:48:42;20.38;;;4.70;;
59786;SDS011;45672;51.612;5.536;2023-11-19T12:51:07;24.85;;;4.55;;
59786;SDS011;45672;51.612;5.536;2023-11-19T12:53:46;29.30;;;4.53;;
59786;SDS011;45672;51.612;5.536;2023-11-19T12:56:15;29.85;;;5.38;;
59786;SDS011;45672;51.612;5.536;2023-11-19T12:58:41;28.98;;;4.88;;
59786;SDS011;45672;51.612;5.536;2023-11-19T13:01:08;23.45;;;4.68;;
59786;SDS011;45672;51.612;5.536;2023-11-19T13:03:35;21.80;;;4.72;;
59786;SDS011;45672;51.612;5.536;2023-11-19T13:06:06;26.60;;;5.43;;
59786;SDS011;45672;51.612;5.536;2023-11-19T13:08:43;27.48;;;4.97;;
59786;SDS011;45672;51.612;5.536;2023-11-19T13:11:33;32.65;;;5.93;;
59786;SDS011;45672;51.612;5.536;2023-11-19T13:14:01;25.35;;;4.80;;
59786;SDS011;45672;51.612;5.536;2023-11-19T13:16:33;28.73;;;5.05;;
59786;SDS011;45672;51.612;5.536;2023-11-19T13:19:01;24.67;;;4.80;;
59786;SDS011;45672;51.612;5.536;2023-11-19T13:21:27;29.20;;;4.55;;
59786;SDS011;45672;51.612;5.536;2023-11-19T13:23:54;30.67;;;5.50;;
59786;SDS011;45672;51.612;5.536;2023-11-19T13:26:20;26.23;;;4.88;;
59786;SDS011;45672;51.612;5.536;2023-11-19T13:28:45;22.38;;;4.63;;
59786;SDS011;45672;51.612;5.536;2023-11-19T13:31:11;24.08;;;4.10;;
59786;SDS011;45672;51.612;5.536;2023-11-19T13:33:36;24.05;;;4.90;;
59786;SDS011;45672;51.612;5.536;2023-11-19T13:36:02;20.77;;;4.10;;
59786;SDS011;45672;51.612;5.536;2023-11-19T13:38:34;20.95;;;4.15;;
59786;SDS011;45672;51.612;5.536;2023-11-19T13:41:03;18.70;;;4.03;;
59786;SDS011;45672;51.612;5.536;2023-11-19T13:43:32;18.75;;;4.03;;
59786;SDS011;45672;51.612;5.536;2023-11-19T13:45:57;23.35;;;3.88;;
59786;SDS011;45672;51.612;5.536;2023-11-19T13:48:23;21.38;;;4.10;;
59786;SDS011;45672;51.612;5.536;2023-11-19T13:50:49;19.02;;;3.70;;
59786;SDS011;45672;51.612;5.536;2023-11-19T13:53:15;20.58;;;3.72;;
59786;SDS011;45672;51.612;5.536;2023-11-19T13:55:41;20.38;;;3.97;;
59786;SDS011;45672;51.612;5.536;2023-11-19T13:58:08;19.38;;;3.90;;
59786;SDS011;45672;51.612;5.536;2023-11-19T14:00:33;20.10;;;3.90;;
59786;SDS011;45672;51.612;5.536;2023-11-19T14:02:58;24.83;;;3.88;;
59786;SDS011;45672;51.612;5.536;2023-11-19T14:05:24;19.35;;;3.90;;
59786;SDS011;45672;51.612;5.536;2023-11-19T14:07:49;20.50;;;4.65;;
59786;SDS011;45672;51.612;5.536;2023-11-19T14:10:16;15.95;;;3.35;;
59786;SDS011;45672;51.612;5.536;2023-11-19T14:12:42;24.17;;;4.00;;
59786;SDS011;45672;51.612;5.536;2023-11-19T14:15:08;17.08;;;4.10;;
59786;SDS011;45672;51.612;5.536;2023-11-19T14:17:38;21.40;;;4.53;;
59786;SDS011;45672;51.612;5.536;2023-11-19T14:20:04;24.13;;;4.80;;
59786;SDS011;45672;51.612;5.536;2023-11-19T14:22:40;23.38;;;4.60;;
59786;SDS011;45672;51.612;5.536;2023-11-19T14:25:08;22.58;;;4.28;;
59786;SDS011;45672;51.612;5.536;2023-11-19T14:27:38;20.80;;;4.95;;
59786;SDS011;45672;51.612;5.536;2023-11-19T14:30:08;21.55;;;3.55;;
59786;SDS011;45672;51.612;5.536;2023-11-19T14:32:38;20.13;;;4.35;;
59786;SDS011;45672;51.612;5.536;2023-11-19T14:35:05;19.65;;;4.00;;
59786;SDS011;45672;51.612;5.536;2023-11-19T14:37:31;17.17;;;3.92;;
59786;SDS011;45672;51.612;5.536;2023-11-19T14:39:57;20.17;;;3.90;;
59786;SDS011;45672;51.612;5.536;2023-11-19T14:42:23;22.20;;;4.03;;
59786;SDS011;45672;51.612;5.536;2023-11-19T14:44:50;24.17;;;4.38;;
59786;SDS011;45672;51.612;5.536;2023-11-19T14:47:18;17.08;;;3.70;;
59786;SDS011;45672;51.612;5.536;2023-11-19T14:49:44;18.77;;;3.92;;
59786;SDS011;45672;51.612;5.536;2023-11-19T14:52:09;14.57;;;3.63;;